Terminal Aerodrome Forecast
Issued by NWS Jackson, KY

Current Version | Previous Version | Text Only | Print | Product List | Glossary On
Versions: 1 2 3 4 5 6 7 8 9 10 11 12 13 14 15 16 17
000
FTUS43 KJKL 201700 RRA
TAFJKL
TAF
KJKL 201741Z 2018/2118 23007KT P6SM VCSH SCT050 OVC070
     FM210600 27003KT P6SM VCSH BKN035
     FM210900 24002KT 5SM BR OVC015
     FM211400 30003KT P6SM BKN050=

USA.gov is the U.S. government's official web portal to all federal, state and local government web resources and services.